Time;durP1;ratioP1;P1;durP2;ratioP2;P2;SDS_P1;SDS_P2;PMS_P1;PMS_P2;Temp;Humidity;BMP_temperature;BMP_pressure;BME280_temperature;BME280_humidity;BME280_pressure;Samples;Min_cycle;Max_cycle;Signal;HPM_P1;HPM_P2
2022/03/24 00:00:50;;;;;;;30.92;19.85;;;;;;;;;;762028;77;26323;-78
2022/03/24 00:01:56;;;;;;;30.57;20.55;;;;;;;;;;759984;78;26253;-79
2022/03/24 00:03:00;;;;;;;29.57;21.12;;;;;;;;;;759579;78;26253;-81
2022/03/24 00:04:04;;;;;;;28.23;18.82;;;;;;;;;;759475;78;26245;-77
2022/03/24 00:05:07;;;;;;;32.23;20.12;;;;;;;;;;760901;78;26312;-78
2022/03/24 00:06:14;;;;;;;33.00;19.87;;;;;;;;;;762841;77;26258;-79
2022/03/24 00:09:07;;;;;;;29.75;17.90;;;;;;;;;;765530;74;26705;-78
2022/03/24 00:10:12;;;;;;;27.60;18.35;;;;;;;;;;787327;75;26665;-77
2022/03/24 00:11:15;;;;;;;31.80;20.60;;;;;;;;;;787169;75;26243;-77
2022/03/24 00:12:21;;;;;;;32.13;19.82;;;;;;;;;;783798;75;26231;-76
2022/03/24 00:13:23;;;;;;;30.57;19.98;;;;;;;;;;786476;75;26320;-76
2022/03/24 00:14:26;;;;;;;32.15;19.85;;;;;;;;;;787442;75;26239;-78
2022/03/24 00:15:31;;;;;;;34.92;21.27;;;;;;;;;;787391;75;26240;-78
2022/03/24 00:16:33;;;;;;;32.35;21.20;;;;;;;;;;787367;75;26239;-77
2022/03/24 00:19:26;;;;;;;32.93;19.20;;;;;;;;;;776522;74;26286;-77
2022/03/24 00:20:29;;;;;;;29.87;19.17;;;;;;;;;;779016;76;26226;-78
2022/03/24 00:21:34;;;;;;;26.95;18.95;;;;;;;;;;778970;76;26241;-77
2022/03/24 00:22:36;;;;;;;27.67;18.77;;;;;;;;;;780289;76;26221;-78
2022/03/24 00:23:39;;;;;;;29.15;18.00;;;;;;;;;;780412;76;26237;-78
2022/03/24 00:24:45;;;;;;;30.35;18.80;;;;;;;;;;780436;76;26284;-78
2022/03/24 00:25:47;;;;;;;26.55;17.50;;;;;;;;;;780503;76;26299;-77
2022/03/24 00:28:56;;;;;;;24.43;16.57;;;;;;;;;;779294;76;26256;-78
2022/03/24 00:38:41;;;;;;;27.82;18.20;;;;;;;;;;801130;73;26702;-77
2022/03/24 00:39:45;;;;;;;27.98;17.90;;;;;;;;;;800271;74;26656;-77
2022/03/24 00:40:48;;;;;;;28.50;18.65;;;;;;;;;;800330;74;26222;-77
2022/03/24 00:41:51;;;;;;;28.98;17.90;;;;;;;;;;799069;74;26279;-77
2022/03/24 00:42:59;;;;;;;24.27;16.30;;;;;;;;;;799028;74;26662;-78
2022/03/24 00:44:02;;;;;;;28.35;17.92;;;;;;;;;;798971;74;26214;-77
2022/03/24 00:45:10;;;;;;;25.25;17.35;;;;;;;;;;799086;74;26233;-77
2022/03/24 00:46:11;;;;;;;29.20;17.32;;;;;;;;;;799618;74;26376;-77
2022/03/24 00:48:41;;;;;;;26.97;16.87;;;;;;;;;;785846;74;26294;-77
2022/03/24 00:49:47;;;;;;;23.77;16.23;;;;;;;;;;785370;75;26284;-79
2022/03/24 00:50:49;;;;;;;28.30;18.05;;;;;;;;;;785276;75;26249;-77
2022/03/24 00:51:52;;;;;;;23.22;15.78;;;;;;;;;;784946;75;26760;-78
2022/03/24 00:52:55;;;;;;;24.02;18.20;;;;;;;;;;786417;74;26237;-77
2022/03/24 00:54:01;;;;;;;26.30;18.07;;;;;;;;;;786732;75;26233;-79
2022/03/24 00:55:05;;;;;;;24.47;17.77;;;;;;;;;;786759;73;26218;-78
2022/03/24 00:56:10;;;;;;;29.72;19.40;;;;;;;;;;786243;75;26276;-79
2022/03/24 00:59:08;;;;;;;28.42;18.77;;;;;;;;;;752641;75;26269;-76
2022/03/24 01:00:15;;;;;;;29.37;19.05;;;;;;;;;;753659;79;26312;-77
2022/03/24 01:01:21;;;;;;;33.00;20.88;;;;;;;;;;753122;79;26439;-77
2022/03/24 01:02:28;;;;;;;32.17;20.97;;;;;;;;;;753147;79;26725;-78
2022/03/24 01:03:30;;;;;;;34.23;20.82;;;;;;;;;;753064;77;26343;-78
2022/03/24 01:04:35;;;;;;;35.17;21.25;;;;;;;;;;753094;79;26315;-78
2022/03/24 01:05:41;;;;;;;30.70;20.60;;;;;;;;;;753098;77;26323;-77
2022/03/24 01:09:02;;;;;;;32.38;20.12;;;;;;;;;;753545;79;26252;-76
2022/03/24 01:10:05;;;;;;;31.20;19.73;;;;;;;;;;793641;75;26279;-77
2022/03/24 01:11:10;;;;;;;34.30;20.32;;;;;;;;;;793706;75;26225;-79
2022/03/24 01:12:14;;;;;;;34.80;21.20;;;;;;;;;;793634;75;26365;-77
2022/03/24 01:13:18;;;;;;;29.55;20.72;;;;;;;;;;793713;75;26225;-77
2022/03/24 01:14:22;;;;;;;31.57;21.68;;;;;;;;;;793645;75;26222;-77
2022/03/24 01:15:26;;;;;;;30.17;20.37;;;;;;;;;;793601;75;26326;-77
2022/03/24 01:16:39;;;;;;;;;;;;;;;;;;;;;
2022/03/24 01:18:14;;;;;;;29.15;19.95;;;;;;;;;;763986;77;24626;-76
2022/03/24 01:19:16;;;;;;;26.57;17.50;;;;;;;;;;779348;76;26239;-78
2022/03/24 01:24:31;;;;;;;26.55;19.37;;;;;;;;;;779763;76;26184;-77
2022/03/24 01:25:36;;;;;;;36.48;20.43;;;;;;;;;;779429;76;26224;-78
2022/03/24 01:28:51;;;;;;;31.57;19.62;;;;;;;;;;770631;75;26352;-77
2022/03/24 01:29:56;;;;;;;32.70;20.72;;;;;;;;;;772688;75;26265;-79
2022/03/24 01:31:04;;;;;;;34.45;21.30;;;;;;;;;;766771;77;26307;-79
2022/03/24 01:32:10;;;;;;;28.38;19.82;;;;;;;;;;768615;77;26307;-78
2022/03/24 01:33:14;;;;;;;32.50;21.23;;;;;;;;;;768970;77;26253;-79
2022/03/24 01:34:18;;;;;;;35.03;22.25;;;;;;;;;;769555;77;26318;-80
2022/03/24 01:35:21;;;;;;;30.90;19.85;;;;;;;;;;769213;77;26257;-80
2022/03/24 01:38:42;;;;;;;32.15;21.25;;;;;;;;;;768937;77;26174;-77
2022/03/24 01:39:46;;;;;;;29.02;20.43;;;;;;;;;;787987;75;26234;-80
2022/03/24 01:40:50;;;;;;;27.80;18.90;;;;;;;;;;775886;76;26323;-78
2022/03/24 01:41:54;;;;;;;29.18;20.12;;;;;;;;;;775890;76;26245;-77
2022/03/24 01:42:58;;;;;;;29.25;20.43;;;;;;;;;;776149;76;26244;-80
2022/03/24 01:44:01;;;;;;;24.92;18.95;;;;;;;;;;775973;76;26299;-77
2022/03/24 01:45:07;;;;;;;30.65;19.00;;;;;;;;;;775640;76;26233;-78
2022/03/24 01:48:26;;;;;;;29.45;19.02;;;;;;;;;;775472;76;26267;-78
2022/03/24 01:49:31;;;;;;;31.37;18.32;;;;;;;;;;772095;76;26241;-77
2022/03/24 01:50:37;;;;;;;30.77;19.40;;;;;;;;;;775578;76;26712;-77
2022/03/24 01:51:40;;;;;;;26.45;17.82;;;;;;;;;;792287;74;26234;-77
2022/03/24 01:52:47;;;;;;;28.87;18.55;;;;;;;;;;792415;75;26237;-77
2022/03/24 01:53:49;;;;;;;25.77;19.02;;;;;;;;;;791594;75;26240;-79
2022/03/24 01:54:54;;;;;;;26.52;17.82;;;;;;;;;;792378;75;26278;-79
2022/03/24 01:55:58;;;;;;;30.85;19.07;;;;;;;;;;792690;75;26701;-80
2022/03/24 01:58:34;;;;;;;25.00;17.70;;;;;;;;;;765348;77;26293;-79
2022/03/24 01:59:39;;;;;;;28.87;19.17;;;;;;;;;;769050;77;26340;-80
2022/03/24 02:00:56;;;;;;;22.32;17.40;;;;;;;;;;756399;77;26256;-79
2022/03/24 02:01:59;;;;;;;26.93;18.20;;;;;;;;;;753221;79;26256;-78
2022/03/24 02:03:04;;;;;;;29.48;17.82;;;;;;;;;;753449;79;26252;-77
2022/03/24 02:04:09;;;;;;;25.55;18.75;;;;;;;;;;752607;79;26694;-77
2022/03/24 02:05:12;;;;;;;27.42;18.67;;;;;;;;;;752433;79;26698;-79
2022/03/24 02:12:56;;;;;;;30.48;18.10;;;;;;;;;;801882;71;24262;-78
2022/03/24 02:14:00;;;;;;;30.90;18.73;;;;;;;;;;801962;74;26681;-79
2022/03/24 02:15:04;;;;;;;26.93;20.10;;;;;;;;;;802029;74;26674;-79
2022/03/24 02:18:13;;;;;;;27.65;18.30;;;;;;;;;;802214;74;24503;-77
2022/03/24 02:19:21;;;;;;;26.40;18.92;;;;;;;;;;770141;77;26255;-80
2022/03/24 02:20:28;;;;;;;27.80;18.50;;;;;;;;;;770355;77;26316;-79
2022/03/24 02:21:29;;;;;;;29.20;18.77;;;;;;;;;;765886;77;26716;-77
2022/03/24 02:22:32;;;;;;;27.37;18.98;;;;;;;;;;769508;77;26670;-77
2022/03/24 02:23:35;;;;;;;27.10;19.62;;;;;;;;;;770095;77;26661;-78
2022/03/24 02:24:38;;;;;;;26.70;18.92;;;;;;;;;;769732;77;26248;-77
2022/03/24 02:25:42;;;;;;;28.57;18.00;;;;;;;;;;769579;76;26330;-77
2022/03/24 02:30:02;;;;;;;28.55;16.57;;;;;;;;;;772597;75;26272;-77
2022/03/24 02:31:05;;;;;;;26.68;17.40;;;;;;;;;;782007;75;26304;-79
2022/03/24 02:32:11;;;;;;;24.60;16.93;;;;;;;;;;781844;76;26231;-77
2022/03/24 02:33:12;;;;;;;26.42;17.65;;;;;;;;;;781862;76;26288;-80
2022/03/24 02:35:38;;;;;;;26.48;17.17;;;;;;;;;;781777;76;26704;-78
2022/03/24 02:38:44;;;;;;;24.57;17.17;;;;;;;;;;782446;75;26260;-76
2022/03/24 02:39:49;;;;;;;30.35;17.70;;;;;;;;;;780365;75;24659;-78
2022/03/24 02:40:52;;;;;;;26.68;17.77;;;;;;;;;;786811;75;26257;-78
2022/03/24 02:41:55;;;;;;;28.05;19.27;;;;;;;;;;769182;76;26674;-78
2022/03/24 02:42:59;;;;;;;25.02;17.65;;;;;;;;;;765999;77;26679;-76
2022/03/24 02:44:04;;;;;;;31.48;18.42;;;;;;;;;;765921;77;26696;-79
2022/03/24 02:45:10;;;;;;;28.27;17.07;;;;;;;;;;793554;74;26691;-76
2022/03/24 02:49:45;;;;;;;28.92;16.35;;;;;;;;;;804099;74;26264;-81
2022/03/24 02:50:48;;;;;;;24.90;16.40;;;;;;;;;;803763;74;26282;-79
2022/03/24 02:51:52;;;;;;;26.40;15.85;;;;;;;;;;803193;74;26399;-78
2022/03/24 02:52:55;;;;;;;25.82;16.02;;;;;;;;;;803091;74;26273;-78
2022/03/24 02:53:58;;;;;;;23.47;15.70;;;;;;;;;;803081;74;26229;-78
2022/03/24 02:55:01;;;;;;;23.20;16.40;;;;;;;;;;803051;74;26689;-77
2022/03/24 02:58:19;;;;;;;25.43;15.78;;;;;;;;;;804479;74;26149;-80
2022/03/24 03:05:33;;;;;;;19.92;15.08;;;;;;;;;;816095;72;26634;-81
2022/03/24 03:08:31;;;;;;;26.93;15.90;;;;;;;;;;804409;72;24684;-76
2022/03/24 03:09:34;;;;;;;23.55;17.75;;;;;;;;;;803048;74;26224;-79
2022/03/24 03:10:38;;;;;;;23.57;17.05;;;;;;;;;;803196;74;26224;-77
2022/03/24 03:11:46;;;;;;;23.62;16.23;;;;;;;;;;802820;74;26224;-77
2022/03/24 03:12:46;;;;;;;23.85;15.78;;;;;;;;;;802009;73;26662;-79
2022/03/24 03:13:52;;;;;;;23.98;15.85;;;;;;;;;;802890;74;26216;-77
2022/03/24 03:14:56;;;;;;;23.95;16.42;;;;;;;;;;799279;74;26221;-78
2022/03/24 03:17:49;;;;;;;22.30;15.18;;;;;;;;;;796421;72;26733;-78
2022/03/24 03:18:52;;;;;;;24.47;15.85;;;;;;;;;;789075;74;26755;-78
2022/03/24 03:19:55;;;;;;;22.65;15.70;;;;;;;;;;789053;75;26306;-80
2022/03/24 03:20:58;;;;;;;23.30;15.80;;;;;;;;;;789226;74;26236;-78
2022/03/24 03:22:03;;;;;;;26.07;16.30;;;;;;;;;;789178;74;26686;-79
2022/03/24 03:23:05;;;;;;;21.37;15.40;;;;;;;;;;789493;75;26244;-78
2022/03/24 03:24:09;;;;;;;21.55;15.30;;;;;;;;;;789179;74;26338;-78
2022/03/24 03:25:13;;;;;;;24.20;16.15;;;;;;;;;;789051;75;26228;-81
2022/03/24 03:28:07;;;;;;;26.57;16.02;;;;;;;;;;788149;74;26299;-78
2022/03/24 03:29:12;;;;;;;23.85;15.70;;;;;;;;;;805780;73;26224;-79
2022/03/24 03:30:14;;;;;;;25.70;17.05;;;;;;;;;;806488;73;26219;-78
2022/03/24 03:31:17;;;;;;;24.23;16.10;;;;;;;;;;806462;73;26224;-78
2022/03/24 03:32:21;;;;;;;30.08;16.30;;;;;;;;;;806146;73;26270;-79
2022/03/24 03:33:24;;;;;;;22.07;15.72;;;;;;;;;;806052;73;26761;-79
2022/03/24 03:34:27;;;;;;;22.25;15.00;;;;;;;;;;806051;73;26208;-78
2022/03/24 03:35:30;;;;;;;22.30;15.90;;;;;;;;;;806012;73;26274;-79
2022/03/24 03:38:32;;;;;;;22.75;14.43;;;;;;;;;;773225;75;26324;-77
2022/03/24 03:39:35;;;;;;;23.05;15.85;;;;;;;;;;774816;76;26297;-77
2022/03/24 03:40:38;;;;;;;29.67;16.17;;;;;;;;;;777220;76;26661;-77
2022/03/24 03:41:42;;;;;;;26.20;16.70;;;;;;;;;;777157;76;26697;-79
2022/03/24 03:42:45;;;;;;;27.73;16.27;;;;;;;;;;777173;76;26302;-79
2022/03/24 03:43:48;;;;;;;23.40;15.70;;;;;;;;;;777242;76;26247;-78
2022/03/24 03:44:51;;;;;;;19.02;14.80;;;;;;;;;;777123;76;24653;-77
2022/03/24 03:50:57;;;;;;;25.30;15.63;;;;;;;;;;817595;72;26330;-80
2022/03/24 03:52:00;;;;;;;21.93;15.10;;;;;;;;;;819392;72;26376;-79
2022/03/24 03:53:03;;;;;;;23.77;14.80;;;;;;;;;;819362;72;26245;-79
2022/03/24 03:54:07;;;;;;;23.10;15.80;;;;;;;;;;819432;72;26216;-79
2022/03/24 03:55:11;;;;;;;20.80;15.30;;;;;;;;;;818157;72;26654;-77
2022/03/24 03:58:29;;;;;;;22.20;15.15;;;;;;;;;;781317;73;26363;-79
2022/03/24 03:59:32;;;;;;;24.67;16.42;;;;;;;;;;777974;76;26306;-77
2022/03/24 04:00:53;;;;;;;27.42;17.10;;;;;;;;;;779787;76;26249;-77
2022/03/24 04:01:57;;;;;;;31.20;18.42;;;;;;;;;;793531;75;26239;-77
2022/03/24 04:03:05;;;;;;;25.60;16.77;;;;;;;;;;795244;75;26214;-79
2022/03/24 04:04:12;;;;;;;27.70;18.65;;;;;;;;;;794564;74;26224;-79
2022/03/24 04:05:10;;;;;;;26.23;17.45;;;;;;;;;;794586;75;26324;-80
2022/03/24 04:06:14;;;;;;;28.20;18.80;;;;;;;;;;794861;75;26231;-80
2022/03/24 04:07:18;;;;;;;30.60;19.45;;;;;;;;;;793412;75;24672;-78
2022/03/24 04:08:21;;;;;;;27.55;18.45;;;;;;;;;;797281;73;26235;-78
2022/03/24 04:09:24;;;;;;;23.98;18.55;;;;;;;;;;793637;74;26297;-79
2022/03/24 04:10:30;;;;;;;27.20;17.80;;;;;;;;;;793333;75;26297;-77
2022/03/24 04:11:35;;;;;;;29.40;18.98;;;;;;;;;;779837;76;26324;-78
2022/03/24 04:12:38;;;;;;;27.77;20.00;;;;;;;;;;793514;74;26238;-79
2022/03/24 04:13:42;;;;;;;27.15;18.48;;;;;;;;;;793510;74;26301;-78
2022/03/24 04:14:45;;;;;;;29.32;18.90;;;;;;;;;;793587;75;26289;-78
2022/03/24 04:17:53;;;;;;;29.45;18.00;;;;;;;;;;795361;75;26159;-82
2022/03/24 04:18:57;;;;;;;27.02;17.80;;;;;;;;;;784722;74;26265;-77
2022/03/24 04:20:01;;;;;;;30.00;19.65;;;;;;;;;;777884;76;26314;-81
2022/03/24 04:21:04;;;;;;;21.87;17.75;;;;;;;;;;777862;76;26225;-78
2022/03/24 04:22:07;;;;;;;29.18;19.00;;;;;;;;;;777719;76;26226;-78
2022/03/24 04:23:11;;;;;;;29.63;19.48;;;;;;;;;;777880;76;26217;-80
2022/03/24 04:24:14;;;;;;;32.50;19.82;;;;;;;;;;777667;76;26229;-76
2022/03/24 04:25:18;;;;;;;34.83;19.62;;;;;;;;;;776516;76;26243;-79
2022/03/24 04:26:22;;;;;;;31.30;19.35;;;;;;;;;;776433;76;24620;-80
2022/03/24 04:27:26;;;;;;;29.27;18.40;;;;;;;;;;776278;76;26241;-79
2022/03/24 04:28:29;;;;;;;35.98;20.00;;;;;;;;;;775985;76;26331;-78
2022/03/24 04:29:31;;;;;;;25.10;18.12;;;;;;;;;;776007;76;26252;-76
2022/03/24 04:30:35;;;;;;;30.90;18.25;;;;;;;;;;765336;76;26312;-79
2022/03/24 04:31:38;;;;;;;29.70;19.95;;;;;;;;;;768512;75;26260;-78
2022/03/24 04:32:41;;;;;;;24.57;17.77;;;;;;;;;;783822;75;26241;-77
2022/03/24 04:33:44;;;;;;;29.35;19.65;;;;;;;;;;783721;75;26256;-78
2022/03/24 04:34:47;;;;;;;27.98;18.48;;;;;;;;;;784153;75;26244;-76
2022/03/24 04:40:07;;;;;;;26.48;17.80;;;;;;;;;;795724;73;26165;-74
2022/03/24 04:41:10;;;;;;;26.93;18.87;;;;;;;;;;789975;74;24685;-75
2022/03/24 04:42:15;;;;;;;26.82;18.23;;;;;;;;;;807043;73;26192;-74
2022/03/24 04:43:20;;;;;;;27.32;17.55;;;;;;;;;;806379;73;26190;-79
2022/03/24 04:44:23;;;;;;;28.05;18.60;;;;;;;;;;805616;73;26237;-78
2022/03/24 04:47:43;;;;;;;26.50;16.85;;;;;;;;;;804891;74;26154;-77
2022/03/24 04:48:48;;;;;;;30.10;18.10;;;;;;;;;;776458;76;26667;-77
2022/03/24 04:52:10;;;;;;;25.45;16.15;;;;;;;;;;776343;76;26202;-78
2022/03/24 04:53:15;;;;;;;27.45;17.37;;;;;;;;;;789944;75;26246;-76
2022/03/24 04:54:20;;;;;;;29.67;18.20;;;;;;;;;;790326;75;26749;-77
2022/03/24 04:57:22;;;;;;;29.27;18.87;;;;;;;;;;808005;73;26227;-75
2022/03/24 04:58:25;;;;;;;26.27;18.52;;;;;;;;;;810186;73;26288;-77
2022/03/24 04:59:31;;;;;;;27.70;17.90;;;;;;;;;;810007;73;26366;-77
2022/03/24 05:00:38;;;;;;;28.27;18.10;;;;;;;;;;809909;73;26233;-77
2022/03/24 05:01:41;;;;;;;30.05;19.67;;;;;;;;;;810660;73;26226;-77
2022/03/24 05:02:46;;;;;;;30.85;19.50;;;;;;;;;;810902;73;26222;-77
2022/03/24 05:03:50;;;;;;;28.95;18.60;;;;;;;;;;810770;73;26227;-75
2022/03/24 05:04:58;;;;;;;27.37;19.37;;;;;;;;;;810741;73;26221;-77
2022/03/24 05:08:03;;;;;;;29.42;20.20;;;;;;;;;;793745;74;26384;-77
2022/03/24 05:09:06;;;;;;;30.30;19.85;;;;;;;;;;794959;74;26249;-77
2022/03/24 05:10:10;;;;;;;30.55;21.80;;;;;;;;;;795054;74;26292;-74
2022/03/24 05:11:16;;;;;;;30.48;21.65;;;;;;;;;;794996;74;26716;-78
2022/03/24 05:12:20;;;;;;;29.10;21.60;;;;;;;;;;795071;74;26664;-77
2022/03/24 05:13:23;;;;;;;33.05;21.42;;;;;;;;;;795366;74;26242;-76
2022/03/24 05:14:27;;;;;;;35.28;21.87;;;;;;;;;;795085;74;26237;-74
2022/03/24 05:19:44;;;;;;;26.07;20.90;;;;;;;;;;795966;74;26183;-72
2022/03/24 05:20:47;;;;;;;33.20;20.68;;;;;;;;;;789783;74;26293;-74
2022/03/24 05:21:52;;;;;;;27.70;21.62;;;;;;;;;;789721;75;26235;-73
2022/03/24 05:23:17;;;;;;;36.00;22.48;;;;;;;;;;789993;74;26238;-74
2022/03/24 05:24:24;;;;;;;34.05;22.32;;;;;;;;;;789704;75;26311;-75
2022/03/24 05:32:28;;;;;;;35.30;25.08;;;;;;;;;;792589;73;26633;-78
2022/03/24 05:33:34;;;;;;;37.42;26.52;;;;;;;;;;789762;73;26651;-79
2022/03/24 05:34:36;;;;;;;35.80;26.20;;;;;;;;;;789735;75;26289;-77
2022/03/24 05:39:09;;;;;;;38.05;25.43;;;;;;;;;;789756;73;26299;-74
2022/03/24 05:40:13;;;;;;;42.78;25.72;;;;;;;;;;789920;75;26745;-77
2022/03/24 05:41:17;;;;;;;29.37;22.35;;;;;;;;;;790178;74;26241;-77
2022/03/24 05:42:20;;;;;;;33.80;21.95;;;;;;;;;;790588;75;26704;-77
2022/03/24 05:43:22;;;;;;;34.78;26.00;;;;;;;;;;790852;75;26255;-78
2022/03/24 05:44:25;;;;;;;39.40;27.77;;;;;;;;;;789812;75;26335;-76
2022/03/24 05:47:26;;;;;;;40.95;29.75;;;;;;;;;;790069;74;26228;-74
2022/03/24 05:48:29;;;;;;;43.17;30.92;;;;;;;;;;791201;75;26243;-76
2022/03/24 05:49:32;;;;;;;48.78;31.25;;;;;;;;;;791081;75;26234;-76
2022/03/24 05:50:35;;;;;;;45.52;30.57;;;;;;;;;;790924;75;26259;-77
2022/03/24 05:51:37;;;;;;;43.02;29.92;;;;;;;;;;790902;75;26292;-77
2022/03/24 05:52:41;;;;;;;44.83;30.80;;;;;;;;;;791032;75;26239;-75
2022/03/24 05:53:44;;;;;;;48.13;30.92;;;;;;;;;;791690;75;26204;-76
2022/03/24 05:54:47;;;;;;;45.63;28.65;;;;;;;;;;791130;75;26247;-76
2022/03/24 05:59:25;;;;;;;40.20;28.50;;;;;;;;;;790726;74;26296;-77
2022/03/24 06:00:28;;;;;;;42.95;28.92;;;;;;;;;;791258;75;26728;-76
2022/03/24 06:01:33;;;;;;;46.83;29.70;;;;;;;;;;792067;75;26748;-76
2022/03/24 06:02:36;;;;;;;40.85;28.90;;;;;;;;;;788795;75;26239;-77
2022/03/24 06:03:39;;;;;;;42.55;31.05;;;;;;;;;;791023;75;26308;-76
2022/03/24 06:04:43;;;;;;;46.48;30.72;;;;;;;;;;791192;75;26239;-77
2022/03/24 06:07:22;;;;;;;43.08;28.17;;;;;;;;;;789485;73;26885;-77
2022/03/24 06:08:25;;;;;;;54.38;30.70;;;;;;;;;;789678;75;26385;-76
2022/03/24 06:09:29;;;;;;;42.65;30.97;;;;;;;;;;789697;75;26237;-76
2022/03/24 06:10:33;;;;;;;46.20;30.72;;;;;;;;;;789808;75;26242;-76
2022/03/24 06:11:36;;;;;;;38.70;28.83;;;;;;;;;;789840;75;26239;-75
2022/03/24 06:12:38;;;;;;;44.13;28.70;;;;;;;;;;789874;75;26238;-78
2022/03/24 06:13:42;;;;;;;42.33;28.45;;;;;;;;;;789672;75;26338;-78
2022/03/24 06:14:44;;;;;;;33.45;27.02;;;;;;;;;;789836;75;26239;-77
2022/03/24 06:20:57;;;;;;;36.40;24.37;;;;;;;;;;786835;72;26892;-77
2022/03/24 06:22:00;;;;;;;34.98;24.98;;;;;;;;;;794130;74;26290;-77
2022/03/24 06:27:52;;;;;;;30.97;23.40;;;;;;;;;;796081;73;26295;-77
2022/03/24 06:28:55;;;;;;;38.63;23.27;;;;;;;;;;791141;75;26684;-76
2022/03/24 06:29:58;;;;;;;35.58;25.15;;;;;;;;;;791036;75;26217;-76
2022/03/24 06:31:01;;;;;;;36.73;25.50;;;;;;;;;;791137;75;26232;-76
2022/03/24 06:32:05;;;;;;;35.88;24.95;;;;;;;;;;790994;75;26208;-75
2022/03/24 06:33:09;;;;;;;30.32;22.80;;;;;;;;;;790932;75;26232;-75
2022/03/24 06:34:12;;;;;;;34.03;24.75;;;;;;;;;;792088;75;26225;-78
2022/03/24 06:37:31;;;;;;;36.90;23.83;;;;;;;;;;792422;75;26162;-76
2022/03/24 06:38:34;;;;;;;32.45;23.77;;;;;;;;;;759438;78;26265;-75
2022/03/24 06:39:37;;;;;;;32.35;23.57;;;;;;;;;;744895;79;26793;-77
2022/03/24 06:40:40;;;;;;;34.20;24.20;;;;;;;;;;760122;78;26269;-77
2022/03/24 06:41:43;;;;;;;35.98;22.75;;;;;;;;;;745644;79;26763;-76
2022/03/24 06:42:46;;;;;;;31.33;25.05;;;;;;;;;;756934;78;26405;-77
2022/03/24 06:43:48;;;;;;;33.73;24.07;;;;;;;;;;744075;80;26397;-76
2022/03/24 06:48:20;;;;;;;36.63;25.48;;;;;;;;;;777294;75;26456;-75
2022/03/24 06:49:23;;;;;;;36.20;24.98;;;;;;;;;;772274;75;26236;-76
2022/03/24 06:50:26;;;;;;;38.38;26.15;;;;;;;;;;771835;77;26248;-76
2022/03/24 06:51:30;;;;;;;36.40;25.37;;;;;;;;;;771820;77;26354;-78
2022/03/24 06:52:32;;;;;;;33.53;25.75;;;;;;;;;;771792;77;26232;-77
2022/03/24 06:53:35;;;;;;;35.73;26.23;;;;;;;;;;771858;77;26232;-75
2022/03/24 06:56:54;;;;;;;36.23;25.00;;;;;;;;;;772576;77;26177;-76
2022/03/24 06:57:57;;;;;;;34.23;24.98;;;;;;;;;;791820;75;26223;-76
2022/03/24 06:59:00;;;;;;;36.98;25.80;;;;;;;;;;788002;75;26227;-76
2022/03/24 07:00:03;;;;;;;35.38;26.25;;;;;;;;;;786363;75;26247;-76
2022/03/24 07:01:06;;;;;;;34.00;26.62;;;;;;;;;;786668;75;26288;-77
2022/03/24 07:02:10;;;;;;;33.05;27.27;;;;;;;;;;786809;75;26238;-76
2022/03/24 07:03:13;;;;;;;32.00;26.00;;;;;;;;;;785826;75;26282;-76
2022/03/24 07:04:16;;;;;;;32.00;25.00;;;;;;;;;;785824;75;26242;-76
2022/03/24 07:09:55;;;;;;;29.02;24.52;;;;;;;;;;790524;75;26318;-75
2022/03/24 07:10:57;;;;;;;34.83;26.17;;;;;;;;;;783650;75;26665;-76
2022/03/24 07:12:00;;;;;;;32.73;26.70;;;;;;;;;;783778;75;26762;-74
2022/03/24 07:13:03;;;;;;;33.35;25.90;;;;;;;;;;784837;75;26304;-76
2022/03/24 07:14:07;;;;;;;33.60;26.37;;;;;;;;;;784646;75;26231;-76
2022/03/24 07:17:28;;;;;;;33.83;26.12;;;;;;;;;;785013;75;26188;-76
2022/03/24 07:18:30;;;;;;;30.23;24.63;;;;;;;;;;790533;74;26244;-74
2022/03/24 07:19:34;;;;;;;31.62;25.08;;;;;;;;;;791999;75;26253;-76
2022/03/24 07:20:37;;;;;;;36.23;25.75;;;;;;;;;;792638;75;26416;-77
2022/03/24 07:21:40;;;;;;;33.95;26.10;;;;;;;;;;793176;75;26291;-75
2022/03/24 07:22:43;;;;;;;30.70;25.62;;;;;;;;;;793383;75;26269;-76
2022/03/24 07:23:46;;;;;;;31.00;24.30;;;;;;;;;;793368;75;26241;-75
2022/03/24 07:26:57;;;;;;;32.58;23.50;;;;;;;;;;779666;75;26769;-75
2022/03/24 07:28:00;;;;;;;32.63;23.87;;;;;;;;;;803978;74;26230;-74
2022/03/24 07:29:03;;;;;;;29.48;24.60;;;;;;;;;;804457;74;26231;-75
2022/03/24 07:30:06;;;;;;;31.93;24.45;;;;;;;;;;804548;74;26230;-75
2022/03/24 07:31:11;;;;;;;32.65;24.98;;;;;;;;;;804476;74;26230;-77
2022/03/24 07:32:13;;;;;;;29.12;24.50;;;;;;;;;;804575;74;26223;-76
2022/03/24 07:33:18;;;;;;;29.85;25.15;;;;;;;;;;804528;74;26719;-75
2022/03/24 07:37:23;;;;;;;30.70;24.07;;;;;;;;;;767874;76;26423;-74
2022/03/24 07:38:26;;;;;;;32.40;25.43;;;;;;;;;;787588;75;26247;-74
2022/03/24 07:39:30;;;;;;;30.80;24.30;;;;;;;;;;787928;75;26231;-74
2022/03/24 07:40:32;;;;;;;29.82;24.20;;;;;;;;;;787838;75;26305;-77
2022/03/24 07:41:35;;;;;;;28.52;23.67;;;;;;;;;;787786;75;26700;-76
2022/03/24 07:42:39;;;;;;;29.15;23.85;;;;;;;;;;787852;75;26238;-76
2022/03/24 07:43:42;;;;;;;28.90;23.80;;;;;;;;;;787862;75;26246;-75
2022/03/24 07:48:16;;;;;;;29.55;22.35;;;;;;;;;;752448;77;26336;-76
2022/03/24 07:49:19;;;;;;;28.35;22.40;;;;;;;;;;765712;77;26304;-75
2022/03/24 07:50:22;;;;;;;30.50;22.73;;;;;;;;;;765530;77;26234;-75
2022/03/24 07:51:25;;;;;;;24.90;22.30;;;;;;;;;;765558;77;26246;-75
2022/03/24 07:52:29;;;;;;;32.65;24.20;;;;;;;;;;762339;77;26304;-76
2022/03/24 07:53:51;;;;;;;32.80;25.02;;;;;;;;;;764044;77;26253;-74
2022/03/24 07:58:29;;;;;;;36.80;25.80;;;;;;;;;;772067;76;26293;-76
2022/03/24 07:59:32;;;;;;;30.20;25.70;;;;;;;;;;773216;77;26252;-74
2022/03/24 08:00:35;;;;;;;34.78;25.25;;;;;;;;;;774139;76;26729;-75
2022/03/24 08:01:38;;;;;;;33.20;26.82;;;;;;;;;;774951;77;26252;-77
2022/03/24 08:02:52;;;;;;;33.75;26.48;;;;;;;;;;775001;77;26241;-76
2022/03/24 08:03:47;;;;;;;34.18;27.00;;;;;;;;;;772363;76;26264;-77
2022/03/24 08:08:13;;;;;;;30.90;25.05;;;;;;;;;;777186;73;26347;-75
2022/03/24 08:09:16;;;;;;;29.52;24.43;;;;;;;;;;772976;77;26300;-76
2022/03/24 08:10:21;;;;;;;29.75;25.10;;;;;;;;;;773618;77;26235;-77
2022/03/24 08:11:25;;;;;;;30.25;25.55;;;;;;;;;;773168;77;26300;-80
2022/03/24 08:12:29;;;;;;;30.05;24.52;;;;;;;;;;773068;77;26313;-75
2022/03/24 08:13:32;;;;;;;30.12;26.17;;;;;;;;;;772609;77;26672;-74
2022/03/24 08:18:08;;;;;;;31.77;25.93;;;;;;;;;;806173;72;26422;-74
2022/03/24 08:19:12;;;;;;;36.50;28.00;;;;;;;;;;804580;74;26443;-75
2022/03/24 08:20:15;;;;;;;30.13;26.43;;;;;;;;;;804632;74;26559;-75
2022/03/24 08:21:18;;;;;;;31.00;26.20;;;;;;;;;;804523;73;26541;-75
2022/03/24 08:22:22;;;;;;;29.47;25.93;;;;;;;;;;804612;74;26397;-75
2022/03/24 08:23:25;;;;;;;30.10;25.43;;;;;;;;;;805170;74;26384;-76
2022/03/24 08:26:43;;;;;;;27.70;22.93;;;;;;;;;;804882;74;26871;-75
2022/03/24 08:27:47;;;;;;;31.47;21.87;;;;;;;;;;770916;77;26531;-75
2022/03/24 08:28:50;;;;;;;27.23;21.50;;;;;;;;;;781257;75;26476;-77
2022/03/24 08:29:53;;;;;;;23.60;21.10;;;;;;;;;;798970;74;26502;-75
2022/03/24 08:30:57;;;;;;;29.30;22.30;;;;;;;;;;798327;74;26407;-75
2022/03/24 08:32:00;;;;;;;25.07;22.37;;;;;;;;;;797961;74;26291;-76
2022/03/24 08:33:05;;;;;;;33.30;24.33;;;;;;;;;;797969;74;26478;-76
2022/03/24 08:36:23;;;;;;;32.83;24.43;;;;;;;;;;798305;74;26348;-75
2022/03/24 08:37:27;;;;;;;23.23;19.07;;;;;;;;;;782816;75;26416;-75
2022/03/24 08:38:29;;;;;;;21.90;18.80;;;;;;;;;;782617;76;26531;-76
2022/03/24 08:39:32;;;;;;;20.13;17.40;;;;;;;;;;782554;76;26576;-76
2022/03/24 08:40:35;;;;;;;20.90;17.57;;;;;;;;;;782636;76;26535;-76
2022/03/24 08:41:38;;;;;;;20.33;16.13;;;;;;;;;;782602;76;26468;-76
2022/03/24 08:42:42;;;;;;;17.80;15.03;;;;;;;;;;782545;76;26917;-74
2022/03/24 08:43:46;;;;;;;15.83;14.10;;;;;;;;;;782556;76;26811;-74
2022/03/24 08:57:00;;;;;;;14.40;13.00;;;;;;;;;;779642;74;26458;-76
2022/03/24 08:58:04;;;;;;;14.87;13.17;;;;;;;;;;795085;74;26488;-76
2022/03/24 08:59:09;;;;;;;12.83;11.63;;;;;;;;;;797121;74;26499;-75
2022/03/24 09:00:13;;;;;;;12.30;11.00;;;;;;;;;;797116;74;26400;-76
2022/03/24 09:01:16;;;;;;;15.77;11.33;;;;;;;;;;797092;74;26469;-74
2022/03/24 09:02:19;;;;;;;12.83;11.17;;;;;;;;;;796895;74;26472;-77
2022/03/24 09:03:22;;;;;;;12.33;11.07;;;;;;;;;;796492;74;26521;-76
2022/03/24 09:08:07;;;;;;;12.50;10.57;;;;;;;;;;796892;74;26543;-75
2022/03/24 09:09:10;;;;;;;11.37;10.10;;;;;;;;;;795532;74;26574;-75
2022/03/24 09:10:15;;;;;;;11.30;10.00;;;;;;;;;;795326;74;26998;-77
2022/03/24 09:11:18;;;;;;;14.53;10.43;;;;;;;;;;795278;74;26629;-75
2022/03/24 09:12:21;;;;;;;13.60;10.97;;;;;;;;;;795189;74;26564;-75
2022/03/24 09:13:24;;;;;;;11.27;10.13;;;;;;;;;;795288;74;26982;-76
2022/03/24 09:18:15;;;;;;;13.07;10.73;;;;;;;;;;792909;74;26702;-74